createdAt,value
2019-05-10T00:00:14.282Z,13.15
2019-05-10T00:03:22.109Z,13.11
2019-05-10T00:06:28.952Z,13.07
2019-05-10T00:09:16.768Z,13.04
2019-05-10T00:12:20.975Z,13.01
2019-05-10T00:15:11.910Z,12.97
2019-05-10T00:18:01.383Z,12.93
2019-05-10T00:20:53.603Z,12.90
2019-05-10T00:23:44.041Z,12.87
2019-05-10T00:26:35.782Z,12.83
2019-05-10T00:29:25.454Z,12.79
2019-05-10T00:32:17.369Z,12.78
2019-05-10T00:35:09.409Z,12.76
2019-05-10T00:37:58.792Z,12.71
2019-05-10T00:40:49.385Z,12.70
2019-05-10T00:43:41.669Z,12.66
2019-05-10T00:46:32.333Z,12.63
2019-05-10T00:49:22.230Z,12.60
2019-05-10T00:52:12.623Z,12.58
2019-05-10T00:55:16.696Z,12.54
2019-05-10T00:57:52.938Z,12.52
2019-05-10T01:00:41.563Z,12.51
2019-05-10T01:03:30.119Z,12.48
2019-05-10T01:06:18.638Z,12.46
2019-05-10T01:09:07.843Z,12.42
2019-05-10T01:11:58.116Z,12.41
2019-05-10T01:14:47.507Z,12.40
2019-05-10T01:17:36.653Z,12.36
2019-05-10T01:20:25.598Z,12.35
2019-05-10T01:23:15.076Z,12.32
2019-05-10T01:26:04.401Z,12.30
2019-05-10T01:28:53.862Z,12.27
2019-05-10T01:31:42.890Z,12.25
2019-05-10T01:34:32.016Z,12.23
2019-05-10T01:37:21.045Z,12.19
2019-05-10T01:40:10.541Z,12.16
2019-05-10T01:43:00.058Z,12.15
2019-05-10T01:45:48.942Z,12.12
2019-05-10T01:48:37.629Z,12.09
2019-05-10T01:51:27.907Z,12.07
2019-05-10T01:54:17.587Z,12.05
2019-05-10T01:57:06.302Z,12.02
2019-05-10T01:59:55.682Z,12.00
2019-05-10T02:02:45.154Z,11.98
2019-05-10T02:05:34.923Z,11.93
2019-05-10T02:08:24.332Z,11.92
2019-05-10T02:11:13.539Z,11.90
2019-05-10T02:14:02.900Z,11.87
2019-05-10T02:16:52.339Z,11.86
2019-05-10T02:19:41.542Z,11.84
2019-05-10T02:22:31.066Z,11.83
2019-05-10T02:25:19.972Z,11.81
2019-05-10T02:28:09.376Z,11.79
2019-05-10T02:30:58.638Z,11.77
2019-05-10T02:33:47.638Z,11.75
2019-05-10T02:36:38.860Z,11.73
2019-05-10T02:39:27.872Z,11.71
2019-05-10T02:42:17.397Z,11.69
2019-05-10T02:45:07.904Z,11.67
2019-05-10T02:47:57.095Z,11.65
2019-05-10T02:50:46.543Z,11.63
2019-05-10T02:53:35.396Z,11.63
2019-05-10T02:56:30.463Z,11.60
2019-05-10T02:59:15.476Z,11.57
2019-05-10T03:02:06.588Z,11.55
2019-05-10T03:04:56.384Z,11.55
2019-05-10T03:07:45.357Z,11.53
2019-05-10T03:10:34.904Z,11.51
2019-05-10T03:13:27.118Z,11.50
2019-05-10T03:16:14.813Z,11.48
2019-05-10T03:19:04.248Z,11.48
2019-05-10T03:22:06.028Z,11.46
2019-05-10T03:24:58.429Z,11.45
2019-05-10T03:27:48.026Z,11.44
2019-05-10T03:30:37.910Z,11.41
2019-05-10T03:33:29.305Z,11.40
2019-05-10T03:36:18.395Z,11.39
2019-05-10T03:39:07.545Z,11.39
2019-05-10T03:41:57.253Z,11.37
2019-05-10T03:44:46.541Z,11.34
2019-05-10T03:47:35.966Z,11.34
2019-05-10T03:50:25.078Z,11.32
2019-05-10T03:53:14.039Z,11.31
2019-05-10T03:56:03.435Z,11.30
2019-05-10T03:58:52.555Z,11.29
2019-05-10T04:01:41.612Z,11.28
2019-05-10T04:04:31.032Z,11.26
2019-05-10T04:07:20.318Z,11.24
2019-05-10T04:10:09.315Z,11.22
2019-05-10T04:12:58.231Z,11.22
2019-05-10T04:15:47.474Z,11.20
2019-05-10T04:18:36.880Z,11.20
2019-05-10T04:21:26.295Z,11.19
2019-05-10T04:24:15.217Z,11.18
2019-05-10T04:27:04.119Z,11.16
2019-05-10T04:29:53.245Z,11.14
2019-05-10T04:32:43.993Z,11.15
2019-05-10T04:35:32.971Z,11.13
2019-05-10T04:38:21.690Z,11.11
2019-05-10T04:41:10.765Z,11.10
2019-05-10T04:44:00.196Z,11.10
2019-05-10T04:46:49.668Z,11.10
2019-05-10T04:49:39.640Z,11.07
2019-05-10T04:52:29.209Z,11.07
2019-05-10T04:55:18.896Z,11.06
2019-05-10T04:58:07.414Z,11.05
2019-05-10T05:00:56.903Z,11.05
2019-05-10T05:03:46.204Z,11.04
2019-05-10T05:06:34.868Z,11.04
2019-05-10T05:09:24.169Z,11.04
2019-05-10T05:12:12.785Z,11.03
2019-05-10T05:15:01.794Z,11.04
2019-05-10T05:17:50.661Z,11.03
2019-05-10T05:20:40.172Z,11.02
2019-05-10T05:23:29.732Z,11.02
2019-05-10T05:26:19.257Z,11.01
2019-05-10T05:29:07.941Z,11.01
2019-05-10T05:32:01.271Z,11.02
2019-05-10T05:34:47.639Z,11.04
2019-05-10T05:37:36.286Z,11.05
2019-05-10T05:40:25.626Z,11.06
2019-05-10T05:43:14.403Z,11.07
2019-05-10T05:46:04.297Z,11.08
2019-05-10T05:48:53.956Z,11.08
2019-05-10T05:51:43.041Z,11.09
2019-05-10T05:54:32.491Z,11.10
2019-05-10T05:57:27.179Z,11.12
2019-05-10T06:00:14.445Z,11.13
2019-05-10T06:03:03.784Z,11.13
2019-05-10T06:05:52.498Z,11.13
2019-05-10T06:08:42.240Z,11.15
2019-05-10T06:11:35.812Z,11.16
2019-05-10T06:14:21.348Z,11.19
2019-05-10T06:17:10.553Z,11.20
2019-05-10T06:20:00.954Z,11.22
2019-05-10T06:23:05.657Z,11.25
2019-05-10T06:25:42.540Z,11.27
2019-05-10T06:28:56.902Z,11.29
2019-05-10T06:31:22.030Z,11.32
2019-05-10T06:34:10.556Z,11.35
2019-05-10T06:37:00.016Z,11.37
2019-05-10T06:39:49.556Z,11.39
2019-05-10T06:42:38.796Z,11.39
2019-05-10T06:45:28.427Z,11.42
2019-05-10T06:48:26.324Z,11.43
2019-05-10T06:51:09.707Z,11.44
2019-05-10T06:53:58.967Z,11.44
2019-05-10T06:56:47.959Z,11.45
2019-05-10T06:59:37.542Z,11.47
2019-05-10T07:02:32.228Z,11.48
2019-05-10T07:05:16.921Z,11.50
2019-05-10T07:08:14.200Z,11.53
2019-05-10T07:10:56.467Z,11.55
2019-05-10T07:13:47.101Z,11.56
2019-05-10T07:16:36.011Z,11.58
2019-05-10T07:19:28.568Z,11.60
2019-05-10T07:22:21.761Z,11.63
2019-05-10T07:25:07.530Z,11.66
2019-05-10T07:27:56.968Z,11.68
2019-05-10T07:30:45.898Z,11.71
2019-05-10T07:33:37.331Z,11.74
2019-05-10T07:36:29.721Z,11.77
2019-05-10T07:39:16.437Z,11.82
2019-05-10T07:42:06.489Z,11.83
2019-05-10T07:44:56.813Z,11.88
2019-05-10T07:47:46.390Z,11.92
2019-05-10T07:50:35.973Z,11.96
2019-05-10T07:53:25.262Z,12.00
2019-05-10T07:56:14.525Z,12.02
2019-05-10T07:59:03.867Z,12.07
2019-05-10T08:01:52.661Z,12.08
2019-05-10T08:04:41.587Z,12.11
2019-05-10T08:07:31.082Z,12.14
2019-05-10T08:10:21.475Z,12.18
2019-05-10T08:13:15.439Z,12.20
2019-05-10T08:16:05.540Z,12.24
2019-05-10T08:18:55.771Z,12.29
2019-05-10T08:21:42.861Z,12.32
2019-05-10T08:24:32.735Z,12.34
2019-05-10T08:27:23.006Z,12.36
2019-05-10T08:30:25.192Z,12.39
2019-05-10T08:33:09.477Z,12.41
2019-05-10T08:36:55.031Z,12.44
2019-05-10T08:39:48.957Z,12.47
2019-05-10T08:42:45.548Z,12.52
2019-05-10T08:45:26.354Z,12.55
2019-05-10T08:48:15.299Z,12.59
2019-05-10T08:51:07.522Z,12.64
2019-05-10T08:53:58.129Z,12.63
2019-05-10T08:56:46.700Z,12.70
2019-05-10T08:59:35.858Z,12.77
2019-05-10T09:02:29.318Z,12.85
2019-05-10T09:05:20.983Z,12.95
2019-05-10T09:08:13.659Z,13.04
2019-05-10T09:10:57.525Z,13.11
2019-05-10T09:13:47.201Z,13.18
2019-05-10T09:16:43.459Z,13.24
2019-05-10T09:19:36.134Z,13.32
2019-05-10T09:22:17.688Z,13.38
2019-05-10T09:25:06.604Z,13.45
2019-05-10T09:27:55.769Z,13.52
2019-05-10T09:30:56.436Z,13.60
2019-05-10T09:33:34.971Z,13.67
2019-05-10T09:36:30.988Z,13.73
2019-05-10T09:39:21.440Z,13.77
2019-05-10T09:42:09.901Z,13.81
2019-05-10T09:44:56.966Z,13.85
2019-05-10T09:47:46.171Z,13.87
2019-05-10T09:50:44.391Z,13.88
2019-05-10T09:53:27.526Z,13.90
2019-05-10T09:59:12.310Z,13.92
2019-05-10T10:02:05.077Z,13.93
2019-05-10T10:04:52.567Z,13.94
2019-05-10T10:07:41.523Z,13.96
2019-05-10T10:10:32.528Z,13.97
2019-05-10T10:13:39.074Z,13.98
2019-05-10T10:16:14.696Z,14.00
2019-05-10T10:19:02.856Z,14.01
2019-05-10T10:21:51.783Z,14.03
2019-05-10T10:24:41.135Z,14.05
2019-05-10T10:27:34.530Z,14.07
2019-05-10T10:30:21.876Z,14.10
2019-05-10T10:33:17.475Z,14.17
2019-05-10T10:36:04.732Z,14.24
2019-05-10T10:38:51.712Z,14.34
2019-05-10T10:41:40.350Z,14.43
2019-05-10T10:44:29.451Z,14.53
2019-05-10T10:47:22.930Z,14.64
2019-05-10T10:50:13.495Z,14.74
2019-05-10T10:53:00.181Z,14.81
2019-05-10T10:55:54.958Z,14.87
2019-05-10T10:58:39.742Z,14.94
2019-05-10T11:01:45.704Z,14.98
2019-05-10T11:04:20.435Z,15.00
2019-05-10T11:07:11.109Z,15.04
2019-05-10T11:10:14.342Z,15.05
2019-05-10T11:12:56.180Z,15.09
2019-05-10T11:15:42.736Z,15.14
2019-05-10T11:18:32.094Z,15.23
2019-05-10T11:21:23.441Z,15.37
2019-05-10T11:24:17.929Z,15.53
2019-05-10T11:27:07.341Z,15.67
2019-05-10T11:29:55.175Z,15.79
2019-05-10T11:32:45.374Z,15.91
2019-05-10T11:35:35.358Z,16.03
2019-05-10T11:38:24.716Z,16.18
2019-05-10T11:41:21.335Z,16.30
2019-05-10T11:44:09.056Z,16.39
2019-05-10T11:46:56.918Z,16.47
2019-05-10T11:49:46.929Z,16.54
2019-05-10T11:52:36.689Z,16.57
2019-05-10T11:55:25.790Z,16.61
2019-05-10T11:58:15.188Z,16.65
2019-05-10T12:01:14.791Z,16.67
2019-05-10T12:03:56.980Z,16.71
2019-05-10T12:06:49.961Z,16.74
2019-05-10T12:09:36.663Z,16.77
2019-05-10T12:12:45.247Z,16.80
2019-05-10T12:15:25.197Z,16.86
2019-05-10T12:18:14.898Z,16.89
2019-05-10T12:21:09.347Z,16.98
2019-05-10T12:23:56.008Z,17.17
2019-05-10T12:29:34.900Z,17.64
2019-05-10T12:32:26.942Z,17.80
2019-05-10T12:35:14.408Z,17.95
2019-05-10T12:38:03.037Z,18.06
2019-05-10T12:40:52.456Z,18.13
2019-05-10T12:43:43.606Z,18.18
2019-05-10T12:46:31.910Z,18.21
2019-05-10T12:49:21.436Z,18.24
2019-05-10T12:52:14.331Z,18.26
2019-05-10T12:55:02.259Z,18.28
2019-05-10T12:57:53.628Z,18.31
2019-05-10T13:00:52.687Z,18.34
2019-05-10T13:03:41.553Z,18.35
2019-05-10T13:06:33.695Z,18.38
2019-05-10T13:09:38.702Z,18.41
2019-05-10T13:12:15.120Z,18.43
2019-05-10T13:15:07.335Z,18.44
2019-05-10T13:17:57.609Z,18.45
2019-05-10T13:20:49.244Z,18.46
2019-05-10T13:23:41.767Z,18.46
2019-05-10T13:26:38.432Z,18.46
2019-05-10T13:29:29.723Z,18.49
2019-05-10T13:32:20.598Z,18.48
2019-05-10T13:35:15.120Z,18.52
2019-05-10T13:38:08.254Z,18.57
2019-05-10T13:40:58.808Z,18.62
2019-05-10T13:43:48.732Z,18.65
2019-05-10T13:46:38.597Z,18.68
2019-05-10T13:49:28.519Z,18.52
2019-05-10T13:52:19.013Z,18.58
2019-05-10T13:55:09.475Z,18.62
2019-05-10T13:57:59.640Z,18.66
2019-05-10T14:00:52.732Z,18.71
2019-05-10T14:03:48.117Z,18.76
2019-05-10T14:06:35.630Z,18.88
2019-05-10T14:09:25.026Z,18.99
2019-05-10T14:12:16.162Z,19.06
2019-05-10T14:15:09.823Z,19.16
2019-05-10T14:17:56.519Z,19.24
2019-05-10T14:20:45.677Z,19.33
2019-05-10T14:23:35.140Z,19.38
2019-05-10T14:26:24.840Z,19.44
2019-05-10T14:29:14.297Z,19.49
2019-05-10T14:32:03.354Z,19.52
2019-05-10T14:34:52.501Z,19.55
2019-05-10T14:37:41.562Z,19.62
2019-05-10T14:40:31.003Z,19.73
2019-05-10T14:43:20.417Z,19.86
2019-05-10T14:46:13.729Z,20.04
2019-05-10T14:49:08.816Z,20.17
2019-05-10T14:51:59.117Z,20.32
2019-05-10T14:54:44.125Z,20.50
2019-05-10T14:57:33.257Z,20.69
2019-05-10T15:00:23.375Z,20.89
2019-05-10T15:03:13.689Z,21.09
2019-05-10T15:06:03.617Z,21.28
2019-05-10T15:08:53.867Z,21.47
2019-05-10T15:11:43.687Z,21.62
2019-05-10T15:14:34.227Z,21.67
2019-05-10T15:17:23.058Z,21.70
2019-05-10T15:20:12.221Z,21.72
2019-05-10T15:23:01.855Z,21.76
2019-05-10T15:25:56.990Z,21.81
2019-05-10T15:28:46.184Z,21.88
2019-05-10T15:31:35.631Z,21.99
2019-05-10T15:34:25.632Z,22.09
2019-05-10T15:37:17.776Z,22.26
2019-05-10T15:40:07.958Z,22.33
2019-05-10T15:42:58.271Z,22.38
2019-05-10T15:45:52.574Z,22.44
2019-05-10T15:48:41.930Z,22.52
2019-05-10T15:51:36.344Z,22.61
2019-05-10T15:54:20.062Z,22.66
2019-05-10T15:57:08.922Z,22.73
2019-05-10T15:59:59.207Z,22.73
2019-05-10T16:02:53.112Z,22.78
2019-05-10T16:08:30.294Z,22.93
2019-05-10T16:11:20.809Z,23.04
2019-05-10T16:14:09.936Z,23.10
2019-05-10T16:16:59.401Z,23.14
2019-05-10T16:19:51.022Z,23.21
2019-05-10T16:22:40.001Z,23.28
2019-05-10T16:25:32.852Z,23.38
2019-05-10T16:28:20.850Z,23.47
2019-05-10T16:31:09.491Z,23.54
2019-05-10T16:33:58.543Z,23.60
2019-05-10T16:36:47.865Z,23.67
2019-05-10T16:39:36.717Z,23.75
2019-05-10T16:42:27.906Z,23.82
2019-05-10T16:45:16.885Z,23.89
2019-05-10T16:48:06.283Z,23.95
2019-05-10T16:50:56.333Z,23.99
2019-05-10T16:53:45.936Z,23.97
2019-05-10T16:56:35.662Z,23.88
2019-05-10T16:59:29.882Z,23.73
2019-05-10T17:02:16.101Z,23.56
2019-05-10T17:05:09.804Z,23.36
2019-05-10T17:07:58.917Z,23.12
2019-05-10T17:10:46.520Z,22.93
2019-05-10T17:13:36.434Z,22.72
2019-05-10T17:16:26.336Z,22.53
2019-05-10T17:19:15.786Z,22.31
2019-05-10T17:22:05.111Z,22.10
2019-05-10T17:24:57.054Z,21.86
2019-05-10T17:27:44.879Z,21.62
2019-05-10T17:30:33.676Z,21.40
2019-05-10T17:33:22.831Z,21.17
2019-05-10T17:36:14.599Z,20.97
2019-05-10T17:39:03.467Z,20.77
2019-05-10T17:41:52.563Z,20.58
2019-05-10T17:44:43.708Z,20.40
2019-05-10T17:47:33.485Z,20.23
2019-05-10T17:50:22.978Z,20.05
2019-05-10T17:53:12.101Z,19.87
2019-05-10T17:56:02.977Z,19.73
2019-05-10T17:58:52.892Z,19.55
2019-05-10T18:01:42.221Z,19.41
2019-05-10T18:04:31.211Z,19.25
2019-05-10T18:07:20.775Z,19.08
2019-05-10T18:10:10.171Z,18.94
2019-05-10T18:13:03.348Z,18.82
2019-05-10T18:15:51.234Z,18.71
2019-05-10T18:18:46.253Z,18.52
2019-05-10T18:21:31.668Z,18.38
2019-05-10T18:24:20.554Z,18.25
2019-05-10T18:27:09.758Z,18.13
2019-05-10T18:30:02.180Z,18.01
2019-05-10T18:32:51.858Z,17.88
2019-05-10T18:35:40.789Z,17.77
2019-05-10T18:38:30.815Z,17.63
2019-05-10T18:41:20.374Z,17.52
2019-05-10T18:44:14.288Z,17.35
2019-05-10T18:47:00.822Z,17.25
2019-05-10T18:49:50.322Z,17.13
2019-05-10T18:52:39.479Z,17.00
2019-05-10T18:55:28.293Z,16.87
2019-05-10T18:58:23.256Z,16.77
2019-05-10T19:01:08.938Z,16.64
2019-05-10T19:03:57.869Z,16.51
2019-05-10T19:06:49.892Z,16.40
2019-05-10T19:09:37.517Z,16.28
2019-05-10T19:12:27.459Z,16.16
2019-05-10T19:15:17.183Z,16.04
2019-05-10T19:18:06.512Z,15.93
2019-05-10T19:20:55.533Z,15.82
2019-05-10T19:23:44.406Z,15.70
2019-05-10T19:26:33.731Z,15.60
2019-05-10T19:29:22.257Z,15.49
2019-05-10T19:32:18.359Z,15.38
2019-05-10T19:35:01.926Z,15.27
2019-05-10T19:37:50.573Z,15.17
2019-05-10T19:40:39.905Z,15.05
2019-05-10T19:43:29.013Z,14.97
2019-05-10T19:46:18.006Z,14.87
2019-05-10T19:49:07.452Z,14.77
2019-05-10T19:51:57.955Z,14.66
2019-05-10T19:54:47.570Z,14.57
2019-05-10T19:57:37.191Z,14.47
2019-05-10T20:00:26.411Z,14.37
2019-05-10T20:03:15.737Z,14.27
2019-05-10T20:06:04.640Z,14.18
2019-05-10T20:08:53.963Z,14.10
2019-05-10T20:11:43.505Z,14.02
2019-05-10T20:14:32.290Z,13.92
2019-05-10T20:17:21.339Z,13.86
2019-05-10T20:20:11.763Z,13.77
2019-05-10T20:23:01.536Z,13.68
2019-05-10T20:25:50.896Z,13.62
2019-05-10T20:28:40.256Z,13.54
2019-05-10T20:31:30.664Z,13.47
2019-05-10T20:34:23.907Z,13.41
2019-05-10T20:37:10.857Z,13.35
2019-05-10T20:40:00.118Z,13.27
2019-05-10T20:42:49.567Z,13.21
2019-05-10T20:45:38.519Z,13.15
2019-05-10T20:48:27.526Z,13.07
2019-05-10T20:51:16.856Z,13.02
2019-05-10T20:54:05.943Z,12.94
2019-05-10T20:56:55.530Z,12.88
2019-05-10T20:59:45.466Z,12.82
2019-05-10T21:02:35.277Z,12.76
2019-05-10T21:05:24.844Z,12.70
2019-05-10T21:08:16.912Z,12.64
2019-05-10T21:11:04.834Z,12.57
2019-05-10T21:13:57.799Z,12.52
2019-05-10T21:16:45.533Z,12.46
2019-05-10T21:19:34.746Z,12.40
2019-05-10T21:22:24.159Z,12.33
2019-05-10T21:25:14.594Z,12.29
2019-05-10T21:28:05.307Z,12.22
2019-05-10T21:30:54.945Z,12.16
2019-05-10T21:33:44.900Z,12.12
2019-05-10T21:36:33.904Z,12.05
2019-05-10T21:39:23.512Z,12.01
2019-05-10T21:42:15.174Z,11.96
2019-05-10T21:45:05.906Z,11.89
2019-05-10T21:47:55.793Z,11.85
2019-05-10T21:50:47.707Z,11.80
2019-05-10T21:53:37.036Z,11.74
2019-05-10T21:56:27.346Z,11.71
2019-05-10T21:59:18.392Z,11.65
2019-05-10T22:02:07.927Z,11.58
2019-05-10T22:04:57.162Z,11.54
2019-05-10T22:07:46.917Z,11.47
2019-05-10T22:10:36.864Z,11.42
2019-05-10T22:13:25.862Z,11.38
2019-05-10T22:16:16.009Z,11.33
2019-05-10T22:19:07.770Z,11.27
2019-05-10T22:21:57.381Z,11.23
2019-05-10T22:24:47.098Z,11.17
2019-05-10T22:27:36.709Z,11.13
2019-05-10T22:30:26.802Z,11.09
2019-05-10T22:33:17.529Z,11.05
2019-05-10T22:36:07.049Z,11.02
2019-05-10T22:39:06.644Z,10.98
2019-05-10T22:41:46.647Z,10.94
2019-05-10T22:44:35.759Z,10.90
2019-05-10T22:47:25.625Z,10.85
2019-05-10T22:50:15.055Z,10.82
2019-05-10T22:53:04.413Z,10.78
2019-05-10T22:55:54.388Z,10.74
2019-05-10T22:58:43.118Z,10.72
2019-05-10T23:01:35.316Z,10.68
2019-05-10T23:04:26.657Z,10.66
2019-05-10T23:07:16.090Z,10.62
2019-05-10T23:10:04.988Z,10.60
2019-05-10T23:12:54.167Z,10.56
2019-05-10T23:15:43.635Z,10.52
2019-05-10T23:18:33.030Z,10.49
2019-05-10T23:21:22.112Z,10.46
2019-05-10T23:24:13.303Z,10.43
2019-05-10T23:27:02.866Z,10.39
2019-05-10T23:29:52.280Z,10.37
2019-05-10T23:32:42.405Z,10.35
2019-05-10T23:35:31.160Z,10.31
2019-05-10T23:38:20.539Z,10.28
2019-05-10T23:41:09.477Z,10.24
2019-05-10T23:43:58.920Z,10.23
2019-05-10T23:46:47.673Z,10.19
2019-05-10T23:49:37.313Z,10.15
2019-05-10T23:52:26.704Z,10.13
2019-05-10T23:55:16.420Z,10.10
2019-05-10T23:58:05.794Z,10.07
